Lachine, Michigan
Current Conditions -  °F | °C
As of 9:54 AM on Thursday 30 Oct 2014 (Local Time) from KAPN Reporting Station
Overcast Overcast  
Wind Chill: 31°   Ceiling: 3800
Heat Index: 36°   Visibility: 10mi
Dew Point: 32°   Wind: 6mph
Humidity: 86%   Direction: 230°SW
Pressure: 30.1"   Gusts: NA
Location:  45.08°N, 83.72°W
Report Text: KAPN 301354Z AUTO 23005KT 10SM OVC038 02/00 A3010 RMK AO2 SLP201 T00220000 TSNO
Loading
Personal Weather Stations






























Interactive Weather Map
Tropical Storm Tracking
New forecast layout! Learn more

10-Day Weather Forecast

Advertisements
Track Severe Weather on mobile